Time;durP1;ratioP1;P1;durP2;ratioP2;P2;SDS_P1;SDS_P2;PMS_P1;PMS_P2;Temp;Humidity;BMP_temperature;BMP_pressure;BME280_temperature;BME280_humidity;BME280_pressure;Samples;Min_cycle;Max_cycle;Signal;HPM_P1;HPM_P2
2022/10/01 00:02:03;;;;;;;9.07;8.18;;;;;;;15.41;73.43;95319.66;5095921;28;20196;-74
2022/10/01 00:04:30;;;;;;;9.30;7.78;;;;;;;15.38;73.01;95326.78;5095904;28;20195;-73
2022/10/01 00:06:59;;;;;;;10.30;8.43;;;;;;;15.37;73.02;95332.72;5095066;28;20211;-74
2022/10/01 00:09:25;;;;;;;9.55;8.65;;;;;;;15.33;73.13;95327.13;5096008;28;20207;-73
2022/10/01 00:11:54;;;;;;;10.07;8.10;;;;;;;15.32;73.07;95321.91;5095954;28;20184;-73
2022/10/01 00:14:20;;;;;;;8.82;7.82;;;;;;;15.31;73.41;95323.09;5095863;28;20191;-73
2022/10/01 00:16:47;;;;;;;12.27;8.30;;;;;;;15.26;73.45;95324.25;5095498;28;20200;-73
2022/10/01 00:19:14;;;;;;;9.25;7.75;;;;;;;15.24;73.47;95314.69;5094850;28;20204;-73
2022/10/01 00:21:41;;;;;;;7.47;6.70;;;;;;;15.22;73.54;95317.06;5094667;28;20227;-73
2022/10/01 00:24:09;;;;;;;9.20;7.13;;;;;;;15.19;73.82;95315.03;5095375;28;20216;-74
2022/10/01 00:26:37;;;;;;;9.55;7.82;;;;;;;15.16;73.84;95320.13;5095681;28;20184;-73
2022/10/01 00:29:07;;;;;;;10.20;7.63;;;;;;;15.19;73.89;95317.78;5094977;28;20202;-73
2022/10/01 00:31:34;;;;;;;13.90;8.00;;;;;;;15.16;73.98;95317.34;5095194;28;20188;-73
2022/10/01 00:34:02;;;;;;;10.48;8.00;;;;;;;15.12;73.75;95316.50;5095926;28;20207;-73
2022/10/01 00:36:30;;;;;;;10.70;7.53;;;;;;;15.08;73.39;95307.34;5095505;28;20308;-73
2022/10/01 00:38:59;;;;;;;8.55;7.68;;;;;;;15.07;73.71;95311.28;5095408;28;20191;-73
2022/10/01 00:41:26;;;;;;;10.23;6.65;;;;;;;15.03;73.87;95313.22;5095392;28;20185;-74
2022/10/01 00:43:57;;;;;;;7.18;6.10;;;;;;;15.04;73.87;95314.03;5094503;28;20215;-73
2022/10/01 00:46:27;;;;;;;6.35;5.80;;;;;;;15.07;74.21;95310.47;5094834;28;20218;-73
2022/10/01 00:48:58;;;;;;;7.13;6.43;;;;;;;15.12;74.24;95301.81;5094897;28;20204;-74
2022/10/01 00:51:27;;;;;;;7.13;6.43;;;;;;;15.10;73.84;95315.28;5095728;28;20200;-73
2022/10/01 00:53:55;;;;;;;6.82;6.13;;;;;;;15.09;73.43;95308.94;5095211;28;20192;-73
2022/10/01 00:56:22;;;;;;;8.30;6.65;;;;;;;15.06;73.25;95317.22;5095566;28;20181;-73
2022/10/01 00:58:53;;;;;;;8.93;6.82;;;;;;;15.02;73.89;95321.91;5094677;28;20199;-73
2022/10/01 01:01:21;;;;;;;7.43;6.68;;;;;;;15.02;74.15;95308.81;5095131;28;20230;-73
2022/10/01 01:03:49;;;;;;;9.18;6.28;;;;;;;15.02;74.47;95319.94;5095122;28;20203;-73
2022/10/01 01:06:16;;;;;;;6.78;6.07;;;;;;;15.02;74.20;95314.38;5095434;28;20196;-73
2022/10/01 01:08:43;;;;;;;7.20;6.50;;;;;;;15.01;74.27;95298.91;5094316;28;20196;-73
2022/10/01 01:11:17;;;;;;;9.43;7.10;;;;;;;15.01;74.32;95296.13;5095321;28;20196;-73
2022/10/01 01:13:49;;;;;;;7.45;6.15;;;;;;;14.97;74.37;95302.81;5094633;28;20194;-73
2022/10/01 01:16:20;;;;;;;8.60;6.38;;;;;;;14.96;74.20;95295.63;5094138;28;20196;-73
2022/10/01 01:18:53;;;;;;;7.18;6.47;;;;;;;14.94;73.98;95290.47;5094268;28;20589;-73
2022/10/01 01:21:26;;;;;;;7.93;6.40;;;;;;;14.93;73.84;95300.78;5094916;28;20234;-73
2022/10/01 01:24:24;;;;;;;7.45;6.32;;;;;;;14.90;74.27;95286.84;5094651;28;20230;-73
2022/10/01 01:26:59;;;;;;;7.82;6.35;;;;;;;14.90;74.69;95298.75;5094808;28;20181;-73
2022/10/01 01:29:32;;;;;;;7.38;5.97;;;;;;;14.92;74.80;95299.19;5094965;28;20196;-73
2022/10/01 01:32:06;;;;;;;8.48;5.93;;;;;;;14.95;74.46;95300.41;5095078;28;20185;-73
2022/10/01 01:34:33;;;;;;;8.05;6.13;;;;;;;14.93;74.57;95295.22;5094605;28;20284;-73
2022/10/01 01:37:03;;;;;;;6.90;6.20;;;;;;;14.90;73.93;95312.63;5094360;28;20203;-73
2022/10/01 01:39:32;;;;;;;7.20;6.43;;;;;;;14.87;74.14;95309.81;5096234;28;20185;-73
2022/10/01 01:42:02;;;;;;;7.00;5.75;;;;;;;14.79;74.74;95294.22;5098289;28;20203;-73
2022/10/01 01:44:35;;;;;;;5.90;5.40;;;;;;;14.78;74.91;95306.50;5098410;28;20220;-73
2022/10/01 01:47:02;;;;;;;6.28;5.28;;;;;;;14.81;74.42;95298.22;5098749;28;20249;-73
2022/10/01 01:49:30;;;;;;;5.75;5.20;;;;;;;14.86;74.42;95313.78;5098680;28;20196;-73
2022/10/01 01:51:59;;;;;;;6.00;5.20;;;;;;;14.87;74.30;95291.16;5098577;28;20196;-73
2022/10/01 01:54:28;;;;;;;5.03;4.60;;;;;;;14.91;74.29;95305.09;5097592;28;20192;-73
2022/10/01 01:56:57;;;;;;;5.10;4.70;;;;;;;14.93;73.55;95300.78;5098495;28;20185;-73
2022/10/01 01:59:24;;;;;;;5.82;4.90;;;;;;;14.95;74.07;95299.59;5098425;28;20565;-73
2022/10/01 02:01:54;;;;;;;5.63;4.82;;;;;;;14.95;73.99;95311.50;5098305;28;20200;-73
2022/10/01 02:04:24;;;;;;;6.40;5.22;;;;;;;14.95;74.00;95316.25;5098272;28;20200;-73
2022/10/01 02:07:14;;;;;;;6.00;5.32;;;;;;;14.87;74.14;95329.25;5098357;28;20191;-73
2022/10/01 02:09:51;;;;;;;6.90;4.90;;;;;;;14.81;74.21;95320.44;5098331;28;20196;-73
2022/10/01 02:12:26;;;;;;;5.47;4.80;;;;;;;14.82;74.84;95329.59;5098231;28;20189;-73
2022/10/01 02:14:57;;;;;;;6.22;5.15;;;;;;;14.79;74.34;95317.25;5097274;28;20701;-73
2022/10/01 02:17:29;;;;;;;6.60;5.47;;;;;;;14.75;74.24;95327.50;5098094;28;20188;-73
2022/10/01 02:19:59;;;;;;;6.43;5.15;;;;;;;14.69;74.16;95332.53;5098249;28;20227;-73
2022/10/01 02:22:34;;;;;;;8.73;5.35;;;;;;;14.63;74.13;95336.00;5098009;28;20203;-73
2022/10/01 02:25:02;;;;;;;6.80;5.15;;;;;;;14.59;74.04;95335.16;5097769;28;20181;-73
2022/10/01 02:27:30;;;;;;;6.82;5.32;;;;;;;14.60;74.55;95332.03;5096993;28;20196;-73
2022/10/01 02:29:59;;;;;;;5.63;5.07;;;;;;;14.62;74.47;95346.31;5097914;28;20189;-73
2022/10/01 02:32:29;;;;;;;5.38;4.88;;;;;;;14.65;75.00;95333.69;5096890;28;20615;-73
2022/10/01 02:34:56;;;;;;;5.75;5.10;;;;;;;14.67;75.21;95331.34;5097404;28;20232;-73
2022/10/01 02:37:24;;;;;;;5.38;4.88;;;;;;;14.65;75.24;95342.81;5097697;28;20185;-73
2022/10/01 02:39:53;;;;;;;5.22;4.72;;;;;;;14.66;75.35;95338.03;5096975;28;20207;-73
2022/10/01 02:42:21;;;;;;;6.15;4.75;;;;;;;14.71;75.09;95346.06;5097590;28;20200;-73
2022/10/01 02:44:49;;;;;;;6.13;5.00;;;;;;;14.73;75.19;95335.38;5096816;28;20208;-73
2022/10/01 02:47:19;;;;;;;4.97;4.57;;;;;;;14.77;75.09;95339.00;5096666;28;20193;-73
2022/10/01 02:49:48;;;;;;;6.10;4.65;;;;;;;14.79;74.82;95361.66;5096441;28;20196;-73
2022/10/01 02:52:22;;;;;;;5.80;4.75;;;;;;;14.77;74.24;95341.00;5096290;28;20196;-73
2022/10/01 02:54:52;;;;;;;5.93;4.72;;;;;;;14.72;74.31;95357.97;5096083;28;20196;-73
2022/10/01 02:57:26;;;;;;;5.82;4.53;;;;;;;14.72;74.21;95361.56;5097449;28;20196;-73
2022/10/01 02:59:56;;;;;;;5.28;4.72;;;;;;;14.73;74.40;95352.03;5096782;28;20188;-73
2022/10/01 03:02:24;;;;;;;5.22;4.80;;;;;;;14.71;74.23;95348.84;5096465;28;20295;-73
2022/10/01 03:04:52;;;;;;;6.22;5.22;;;;;;;14.71;74.52;95342.50;5097164;28;20285;-73
2022/10/01 03:07:19;;;;;;;6.18;4.93;;;;;;;14.73;74.24;95354.00;5096364;28;20204;-73
2022/10/01 03:09:46;;;;;;;6.80;5.85;;;;;;;14.72;74.43;95339.34;5096352;28;20199;-73
2022/10/01 03:12:13;;;;;;;7.63;5.88;;;;;;;14.77;74.27;95346.53;5097059;28;20181;-73
2022/10/01 03:14:39;;;;;;;6.50;5.90;;;;;;;14.76;74.08;95351.31;5096851;28;20212;-73
2022/10/01 03:17:07;;;;;;;7.65;6.68;;;;;;;14.76;74.38;95356.84;5095889;28;20196;-73
2022/10/01 03:19:33;;;;;;;8.50;6.43;;;;;;;14.77;74.40;95346.53;5096979;28;20211;-73
2022/10/01 03:22:02;;;;;;;7.93;6.93;;;;;;;14.77;74.62;95360.41;5096435;28;20588;-73
2022/10/01 03:24:28;;;;;;;7.75;6.47;;;;;;;14.77;75.17;95354.88;5095838;28;20216;-73
2022/10/01 03:26:56;;;;;;;7.10;6.05;;;;;;;14.77;75.13;95339.00;5095730;28;20213;-74
2022/10/01 03:29:23;;;;;;;8.23;6.82;;;;;;;14.79;74.68;95380.31;5096438;28;20196;-73
2022/10/01 03:31:49;;;;;;;7.85;7.05;;;;;;;14.77;74.33;95366.78;5096465;28;20220;-73
2022/10/01 03:34:16;;;;;;;7.38;6.60;;;;;;;14.79;74.23;95367.22;5095941;28;20196;-73
2022/10/01 03:36:43;;;;;;;9.65;6.82;;;;;;;14.79;74.53;95372.78;5095226;28;20356;-73
2022/10/01 03:39:11;;;;;;;8.13;6.60;;;;;;;14.80;74.41;95363.25;5095587;28;20200;-73
2022/10/01 03:41:38;;;;;;;7.20;6.60;;;;;;;14.81;74.58;95358.50;5096458;28;20188;-73
2022/10/01 03:44:05;;;;;;;9.30;7.38;;;;;;;14.78;74.75;95362.84;5096172;28;20204;-73
2022/10/01 03:46:32;;;;;;;10.68;9.70;;;;;;;14.74;74.43;95348.06;5095117;28;20197;-73
2022/10/01 03:48:59;;;;;;;11.27;10.02;;;;;;;14.72;74.49;95339.34;5095087;28;20257;-73
2022/10/01 03:51:27;;;;;;;12.63;11.27;;;;;;;14.72;74.36;95349.66;5096434;28;20250;-73
2022/10/01 03:53:53;;;;;;;13.35;12.15;;;;;;;14.71;74.89;95337.75;5096132;28;20191;-73
2022/10/01 03:56:22;;;;;;;10.98;9.98;;;;;;;14.72;74.47;95349.66;5095219;28;20192;-73
2022/10/01 03:58:48;;;;;;;8.68;7.88;;;;;;;14.69;74.45;95353.97;5095237;28;20208;-73
2022/10/01 04:01:15;;;;;;;10.85;9.75;;;;;;;14.69;74.54;95323.44;5094270;28;20196;-73
2022/10/01 04:03:42;;;;;;;8.60;7.78;;;;;;;14.69;74.71;95318.66;5095496;28;20569;-73
2022/10/01 04:06:09;;;;;;;7.68;6.88;;;;;;;14.67;75.06;95323.00;5095057;28;20189;-73
2022/10/01 04:08:36;;;;;;;8.27;7.47;;;;;;;14.63;75.18;95322.97;5095868;28;20180;-73
2022/10/01 04:11:04;;;;;;;9.52;7.45;;;;;;;14.62;75.38;95328.88;5094792;28;20201;-73
2022/10/01 04:13:33;;;;;;;7.55;6.20;;;;;;;14.59;75.22;95344.28;5095100;28;20245;-73
2022/10/01 04:16:00;;;;;;;8.15;6.63;;;;;;;14.60;75.63;95351.47;5095082;28;20200;-73
2022/10/01 04:18:27;;;;;;;7.13;6.50;;;;;;;14.60;75.55;95354.22;5094694;28;20204;-73
2022/10/01 04:20:54;;;;;;;7.00;6.38;;;;;;;14.62;76.11;95370.50;5094873;28;20192;-73
2022/10/01 04:23:21;;;;;;;8.75;6.47;;;;;;;14.66;75.69;95351.94;5095890;28;20189;-73
2022/10/01 04:25:48;;;;;;;7.13;6.43;;;;;;;14.69;75.74;95357.53;5094449;28;20196;-73
2022/10/01 04:28:14;;;;;;;7.30;6.50;;;;;;;14.68;75.79;95341.25;5095180;28;20196;-73
2022/10/01 04:30:45;;;;;;;7.15;6.45;;;;;;;14.69;75.85;95331.75;5095439;28;20199;-73
2022/10/01 04:33:13;;;;;;;7.95;6.72;;;;;;;14.69;76.04;95332.53;5094581;28;20188;-73
2022/10/01 04:35:39;;;;;;;7.90;7.10;;;;;;;14.67;75.73;95326.59;5094913;28;20585;-73
2022/10/01 04:38:09;;;;;;;9.52;8.57;;;;;;;14.66;75.52;95340.81;5094396;28;20196;-73
2022/10/01 04:40:36;;;;;;;8.43;7.55;;;;;;;14.62;75.41;95338.00;5095629;28;20184;-73
2022/10/01 04:43:04;;;;;;;9.30;7.13;;;;;;;14.64;75.47;95335.66;5094607;28;20305;-73
2022/10/01 04:45:31;;;;;;;7.70;6.78;;;;;;;14.62;75.58;95321.34;5095418;28;20208;-73
2022/10/01 04:48:00;;;;;;;8.40;7.60;;;;;;;14.59;75.58;95358.16;5095196;28;20192;-73
2022/10/01 04:50:27;;;;;;;8.00;6.75;;;;;;;14.58;75.67;95339.91;5094511;28;20200;-73
2022/10/01 04:52:54;;;;;;;7.72;6.93;;;;;;;14.59;75.23;95365.69;5095117;28;20218;-73
2022/10/01 04:55:22;;;;;;;9.73;8.73;;;;;;;14.56;75.33;95358.09;5094214;28;20197;-73
2022/10/01 04:57:49;;;;;;;9.95;6.80;;;;;;;14.55;75.29;95367.59;5094372;28;20214;-73
2022/10/01 05:00:17;;;;;;;7.65;5.97;;;;;;;14.55;74.86;95362.84;5095166;28;20184;-73
2022/10/01 05:02:45;;;;;;;8.15;5.90;;;;;;;14.59;74.98;95371.25;5095029;28;20169;-73
2022/10/01 05:05:13;;;;;;;8.10;6.45;;;;;;;14.57;74.59;95388.28;5095491;28;20204;-73
2022/10/01 05:07:40;;;;;;;8.30;6.15;;;;;;;14.61;75.01;95377.22;5095479;28;20192;-74
2022/10/01 05:10:10;;;;;;;8.25;5.80;;;;;;;14.63;74.78;95397.06;5094049;28;20651;-73
2022/10/01 05:12:37;;;;;;;6.28;5.70;;;;;;;14.65;74.66;95391.97;5095862;28;20192;-73
2022/10/01 05:15:04;;;;;;;8.18;5.50;;;;;;;14.66;75.23;95396.34;5098058;28;20207;-73
2022/10/01 05:17:33;;;;;;;7.47;5.80;;;;;;;14.67;75.06;95376.56;5099189;28;20242;-74
2022/10/01 05:20:00;;;;;;;6.25;5.32;;;;;;;14.69;75.14;95374.19;5099094;28;20184;-73
2022/10/01 05:22:28;;;;;;;5.50;5.00;;;;;;;14.73;74.79;95370.69;5099060;28;20185;-73
2022/10/01 05:24:55;;;;;;;8.32;5.28;;;;;;;14.77;75.11;95380.66;5098595;28;20253;-74
2022/10/01 05:27:27;;;;;;;5.93;5.22;;;;;;;14.79;75.16;95377.53;5099074;28;20184;-73
2022/10/01 05:29:56;;;;;;;5.95;5.45;;;;;;;14.84;75.19;95380.78;5097928;28;20705;-73
2022/10/01 05:32:23;;;;;;;6.85;5.28;;;;;;;14.91;75.13;95377.31;5098476;28;20535;-73
2022/10/01 05:34:50;;;;;;;7.25;6.00;;;;;;;14.95;75.26;95396.81;5098754;28;20232;-73
2022/10/01 05:37:18;;;;;;;8.57;5.50;;;;;;;14.98;75.17;95390.50;5098528;28;20185;-73
2022/10/01 05:39:47;;;;;;;6.53;5.90;;;;;;;15.03;74.99;95401.28;5098384;28;20212;-73
2022/10/01 05:42:14;;;;;;;6.07;5.28;;;;;;;15.05;74.57;95371.97;5098756;28;20200;-72
2022/10/01 05:44:44;;;;;;;7.05;6.40;;;;;;;15.09;74.85;95364.50;5098691;28;20204;-73
2022/10/01 05:47:12;;;;;;;7.18;5.75;;;;;;;15.12;74.96;95346.28;5098545;28;20287;-73
2022/10/01 05:49:43;;;;;;;6.18;5.57;;;;;;;15.17;74.70;95354.28;5097931;28;20205;-73
2022/10/01 05:52:10;;;;;;;6.63;5.95;;;;;;;15.20;74.80;95359.09;5098571;28;20197;-73
2022/10/01 05:54:37;;;;;;;11.75;9.25;;;;;;;15.23;74.95;95350.00;5098360;28;20206;-72
2022/10/01 05:57:06;;;;;;;12.80;11.60;;;;;;;15.24;74.67;95364.69;5097335;28;20201;-72
2022/10/01 05:59:33;;;;;;;14.90;13.45;;;;;;;15.23;74.53;95363.09;5097785;28;20506;-73
2022/10/01 06:02:00;;;;;;;13.93;12.52;;;;;;;15.25;74.81;95364.34;5098633;28;20193;-72
2022/10/01 06:04:27;;;;;;;12.35;10.75;;;;;;;15.24;75.07;95393.28;5097709;28;20208;-73
2022/10/01 06:06:55;;;;;;;16.98;14.30;;;;;;;15.24;75.14;95398.03;5098272;28;20203;-73
2022/10/01 06:09:21;;;;;;;15.82;14.20;;;;;;;15.27;74.73;95392.53;5097730;28;20262;-72
2022/10/01 06:11:48;;;;;;;14.68;13.15;;;;;;;15.30;75.07;95407.66;5097292;28;20628;-72
2022/10/01 06:14:17;;;;;;;15.18;13.07;;;;;;;15.32;75.61;95420.00;5097216;28;20200;-73
2022/10/01 06:16:46;;;;;;;16.00;14.55;;;;;;;15.37;75.42;95410.53;5097837;28;20177;-72
2022/10/01 06:19:13;;;;;;;16.15;12.90;;;;;;;15.43;75.76;95411.00;5098066;28;20193;-73
2022/10/01 06:21:40;;;;;;;16.15;14.68;;;;;;;15.46;75.54;95408.28;5096964;28;20204;-73
2022/10/01 06:24:07;;;;;;;19.95;14.23;;;;;;;15.50;75.77;95405.53;5097217;28;20188;-73
2022/10/01 06:26:34;;;;;;;14.00;12.70;;;;;;;15.55;75.53;95430.25;5096901;28;20245;-73
2022/10/01 06:29:01;;;;;;;13.07;11.73;;;;;;;15.60;75.44;95439.03;5097107;28;20527;-73
2022/10/01 06:31:29;;;;;;;13.32;11.93;;;;;;;15.68;75.18;95417.72;5097601;28;20207;-73
2022/10/01 06:33:56;;;;;;;11.50;10.43;;;;;;;15.73;74.78;95430.53;5096629;28;20204;-73
2022/10/01 06:36:23;;;;;;;10.75;9.20;;;;;;;15.77;74.33;95401.56;5096606;28;20236;-73
2022/10/01 06:38:50;;;;;;;8.75;7.95;;;;;;;15.79;74.05;95401.19;5097148;28;20561;-73
2022/10/01 06:41:17;;;;;;;9.07;8.13;;;;;;;15.84;73.92;95401.66;5096795;28;20249;-73
2022/10/01 06:43:44;;;;;;;8.10;7.15;;;;;;;15.88;73.89;95410.84;5097548;28;20199;-73
2022/10/01 06:46:11;;;;;;;8.63;7.00;;;;;;;15.93;74.21;95398.56;5097509;28;20262;-73
2022/10/01 06:48:39;;;;;;;9.70;8.77;;;;;;;15.96;73.81;95378.34;5097168;28;20216;-73
2022/10/01 06:51:07;;;;;;;8.52;7.53;;;;;;;16.00;73.71;95398.66;5097522;28;20197;-73
2022/10/01 06:53:34;;;;;;;11.15;8.90;;;;;;;16.03;73.50;95397.91;5097393;28;20181;-73
2022/10/01 06:56:05;;;;;;;12.20;9.32;;;;;;;16.07;73.25;95409.06;5097293;28;20185;-73
2022/10/01 06:58:32;;;;;;;10.88;9.68;;;;;;;16.13;73.01;95402.78;5096503;28;20192;-73
2022/10/01 07:01:00;;;;;;;14.05;8.68;;;;;;;16.19;73.04;95391.31;5097364;28;20184;-73
2022/10/01 07:03:27;;;;;;;12.02;8.48;;;;;;;16.25;72.94;95393.38;5096905;28;20273;-73
2022/10/01 07:06:01;;;;;;;10.45;8.30;;;;;;;16.31;72.21;95402.19;5097082;28;20227;-73
2022/10/01 07:08:27;;;;;;;8.32;7.53;;;;;;;16.39;72.22;95423.34;5097052;28;20187;-73
2022/10/01 07:11:00;;;;;;;10.70;7.80;;;;;;;16.44;71.86;95447.25;5096854;28;20196;-73
2022/10/01 07:13:26;;;;;;;10.07;7.57;;;;;;;16.48;71.52;95454.44;5096722;28;20191;-73
2022/10/01 07:15:53;;;;;;;8.70;7.85;;;;;;;16.51;70.67;95452.88;5097208;28;20181;-73
2022/10/01 07:18:20;;;;;;;7.85;7.05;;;;;;;16.60;70.23;95434.69;5097424;28;20245;-73
2022/10/01 07:20:47;;;;;;;9.30;8.27;;;;;;;16.73;70.54;95442.75;5097111;28;20207;-73
2022/10/01 07:23:16;;;;;;;7.10;6.50;;;;;;;16.86;69.25;95438.53;5097053;28;20184;-73
2022/10/01 07:25:43;;;;;;;7.30;6.47;;;;;;;16.90;69.52;95424.66;5096635;28;20240;-73
2022/10/01 07:28:15;;;;;;;7.85;7.05;;;;;;;16.95;69.47;95413.94;5096594;28;20204;-73
2022/10/01 07:30:42;;;;;;;8.70;7.80;;;;;;;17.11;69.52;95415.66;5097024;28;20189;-73
2022/10/01 07:33:09;;;;;;;10.23;7.85;;;;;;;17.18;68.86;95404.56;5097130;28;20180;-73
2022/10/01 07:35:37;;;;;;;8.43;6.95;;;;;;;17.25;68.04;95380.31;5095560;28;20294;-73
2022/10/01 07:38:06;;;;;;;9.13;7.07;;;;;;;17.37;68.48;95384.78;5095704;28;20188;-73
2022/10/01 07:40:34;;;;;;;9.57;7.32;;;;;;;17.48;68.51;95390.41;5096131;28;20265;-73
2022/10/01 07:43:01;;;;;;;14.10;8.13;;;;;;;17.58;68.23;95403.63;5095953;28;20204;-73
2022/10/01 07:45:28;;;;;;;8.27;7.43;;;;;;;17.66;67.68;95399.69;5095761;28;20654;-73
2022/10/01 07:47:55;;;;;;;12.93;7.75;;;;;;;17.73;66.77;95394.13;5096977;28;20249;-74
2022/10/01 07:50:21;;;;;;;7.57;6.13;;;;;;;17.74;66.50;95392.94;5095840;28;20196;-74
2022/10/01 07:52:51;;;;;;;9.10;8.05;;;;;;;17.78;66.38;95412.50;5096895;28;20253;-74
2022/10/01 07:55:18;;;;;;;6.90;6.18;;;;;;;17.74;66.34;95392.13;5095939;28;20257;-73
2022/10/01 07:57:51;;;;;;;8.00;7.22;;;;;;;17.73;66.05;95410.88;5096992;28;20604;-73
2022/10/01 08:00:19;;;;;;;8.45;7.57;;;;;;;17.73;66.51;95413.66;5096578;28;20238;-73
2022/10/01 08:02:49;;;;;;;8.50;7.28;;;;;;;17.72;66.55;95398.13;5096380;28;20181;-73
2022/10/01 08:05:19;;;;;;;7.53;6.43;;;;;;;17.72;66.49;95386.97;5095309;28;20615;-73
2022/10/01 08:07:46;;;;;;;9.07;7.43;;;;;;;17.72;66.69;95386.13;5096333;28;20195;-73
2022/10/01 08:10:13;;;;;;;7.20;6.50;;;;;;;17.71;66.58;95384.56;5095675;28;20200;-73
2022/10/01 08:12:41;;;;;;;7.13;5.80;;;;;;;17.74;65.83;95365.03;5095774;28;20196;-73
2022/10/01 08:15:10;;;;;;;7.45;6.70;;;;;;;17.78;65.80;95373.44;5095727;28;20220;-73
2022/10/01 08:17:37;;;;;;;8.82;6.15;;;;;;;17.78;65.83;95357.50;5095727;28;20257;-73
2022/10/01 08:20:05;;;;;;;9.20;5.50;;;;;;;17.80;66.10;95357.13;5094831;28;20253;-73
2022/10/01 08:22:32;;;;;;;6.82;5.72;;;;;;;17.82;65.72;95351.94;5095244;28;20586;-72
2022/10/01 08:24:59;;;;;;;8.45;5.85;;;;;;;17.85;65.85;95339.22;5094976;28;20205;-72
2022/10/01 08:27:26;;;;;;;6.57;5.45;;;;;;;17.89;65.19;95353.97;5095890;28;20203;-73
2022/10/01 08:29:53;;;;;;;8.90;6.60;;;;;;;17.89;65.54;95367.91;5095634;28;20192;-73
2022/10/01 08:32:22;;;;;;;7.80;5.78;;;;;;;17.87;65.38;95345.22;5094842;28;20203;-74
2022/10/01 08:34:49;;;;;;;5.68;5.25;;;;;;;17.89;65.47;95345.59;5095375;28;20224;-72
2022/10/01 08:37:15;;;;;;;7.15;5.55;;;;;;;17.89;65.63;95346.38;5094529;28;20188;-72
2022/10/01 08:39:42;;;;;;;8.90;7.22;;;;;;;17.89;65.92;95348.38;5095743;28;20193;-73
2022/10/01 08:42:23;;;;;;;8.45;7.63;;;;;;;17.88;66.01;95346.78;5095163;28;20512;-73
2022/10/01 08:44:51;;;;;;;9.35;7.25;;;;;;;17.88;66.40;95338.44;5094461;28;20192;-72
2022/10/01 08:47:31;;;;;;;11.70;8.05;;;;;;;17.93;66.06;95341.63;5094349;28;20204;-73
2022/10/01 08:50:00;;;;;;;7.85;6.72;;;;;;;17.92;65.84;95348.41;5094476;28;20200;-73
2022/10/01 08:52:30;;;;;;;8.35;6.82;;;;;;;17.93;65.91;95361.16;5095430;28;20192;-72
2022/10/01 08:54:59;;;;;;;9.43;6.55;;;;;;;17.95;65.04;95350.41;5094056;28;20527;-73
2022/10/01 08:57:39;;;;;;;10.80;7.13;;;;;;;17.95;65.89;95367.16;5095550;28;20204;-73
2022/10/01 09:00:12;;;;;;;6.82;6.07;;;;;;;17.94;65.59;95351.59;5095018;28;20218;-73
2022/10/01 09:02:42;;;;;;;8.68;7.78;;;;;;;17.99;65.24;95356.78;5095033;28;20176;-73
2022/10/01 09:05:17;;;;;;;9.15;8.25;;;;;;;17.96;65.49;95362.38;5095214;28;20213;-73
2022/10/01 09:07:51;;;;;;;9.52;7.88;;;;;;;17.96;65.40;95357.56;5095176;28;20184;-72
2022/10/01 09:10:28;;;;;;;11.25;9.52;;;;;;;17.93;65.67;95397.44;5095077;28;20198;-72
2022/10/01 09:13:08;;;;;;;11.80;10.15;;;;;;;17.89;65.60;95429.31;5094317;28;20188;-73
2022/10/01 09:15:38;;;;;;;9.57;8.70;;;;;;;17.86;65.65;95421.72;5095698;28;20180;-73
2022/10/01 09:18:14;;;;;;;12.23;9.27;;;;;;;17.83;66.26;95444.81;5094250;28;20193;-73
2022/10/01 09:20:44;;;;;;;11.63;7.97;;;;;;;17.80;66.19;95440.84;5095307;28;20181;-73
2022/10/01 09:23:19;;;;;;;9.40;7.95;;;;;;;17.77;66.28;95445.19;5094161;28;20192;-73
2022/10/01 09:25:50;;;;;;;8.05;7.30;;;;;;;17.75;66.71;95447.56;5094240;28;20276;-73
2022/10/01 09:28:19;;;;;;;12.10;8.77;;;;;;;17.75;67.56;95433.59;5093744;28;20196;-73
2022/10/01 09:30:53;;;;;;;8.70;7.80;;;;;;;17.74;68.86;95450.72;5094113;28;20200;-73
2022/10/01 09:33:24;;;;;;;9.68;8.68;;;;;;;17.71;69.28;95449.50;5094618;28;20718;-73
2022/10/01 09:35:55;;;;;;;10.02;8.07;;;;;;;17.68;70.04;95446.69;5094547;28;20242;-73
2022/10/01 09:38:25;;;;;;;11.55;8.40;;;;;;;17.66;70.06;95451.88;5093769;28;20203;-73
2022/10/01 09:40:53;;;;;;;11.65;8.82;;;;;;;17.65;70.61;95456.66;5094531;28;20204;-73
2022/10/01 09:43:21;;;;;;;10.52;8.25;;;;;;;17.64;70.44;95435.50;5094607;28;20277;-73
2022/10/01 09:45:48;;;;;;;9.38;8.38;;;;;;;17.65;70.49;95419.59;5093700;28;20303;-73
2022/10/01 09:48:27;;;;;;;10.32;8.88;;;;;;;17.66;71.28;95413.63;5094199;28;20200;-73
2022/10/01 09:50:57;;;;;;;15.63;12.68;;;;;;;17.67;71.74;95404.06;5094658;28;20193;-73
2022/10/01 09:53:33;;;;;;;18.67;15.23;;;;;;;17.66;71.77;95376.56;5094730;28;20181;-73
2022/10/01 09:56:05;;;;;;;17.10;15.23;;;;;;;17.65;71.90;95372.97;5093593;28;20419;-73
2022/10/01 09:58:35;;;;;;;12.85;10.65;;;;;;;17.66;72.33;95362.63;5094032;28;20543;-73
2022/10/01 10:01:04;;;;;;;11.55;9.85;;;;;;;17.66;72.41;95379.34;5096487;28;20185;-73
2022/10/01 10:03:32;;;;;;;11.68;10.57;;;;;;;17.65;72.48;95380.56;5097961;28;20524;-73
2022/10/01 10:06:03;;;;;;;10.18;8.73;;;;;;;17.63;72.15;95372.56;5098132;28;20204;-73
2022/10/01 10:08:31;;;;;;;10.48;8.48;;;;;;;17.64;72.07;95370.56;5098129;28;20279;-74
2022/10/01 10:11:00;;;;;;;10.57;9.25;;;;;;;17.65;72.02;95391.72;5097218;28;20196;-74
2022/10/01 10:13:33;;;;;;;12.52;10.73;;;;;;;17.65;72.09;95377.75;5098014;28;20184;-73
2022/10/01 10:16:09;;;;;;;13.20;10.15;;;;;;;17.64;73.03;95374.16;5098284;28;20187;-73
2022/10/01 10:18:39;;;;;;;12.40;10.25;;;;;;;17.65;73.24;95386.13;5097189;28;20596;-73
2022/10/01 10:21:13;;;;;;;13.80;10.02;;;;;;;17.63;74.10;95378.13;5096842;28;20196;-73
2022/10/01 10:23:47;;;;;;;14.23;11.35;;;;;;;17.64;74.29;95370.56;5097571;28;20180;-73
2022/10/01 10:26:19;;;;;;;13.18;9.82;;;;;;;17.64;74.78;95371.34;5096852;28;20227;-74
2022/10/01 10:28:46;;;;;;;11.27;9.52;;;;;;;17.66;74.67;95359.84;5096747;28;20220;-73
2022/10/01 10:31:15;;;;;;;12.30;9.38;;;;;;;17.68;74.41;95379.75;5097546;28;20195;-73
2022/10/01 10:33:48;;;;;;;12.50;10.05;;;;;;;17.69;75.32;95412.06;5096636;28;20199;-73
2022/10/01 10:36:15;;;;;;;12.05;9.18;;;;;;;17.67;75.17;95408.84;5097232;28;20240;-73
2022/10/01 10:38:48;;;;;;;12.07;9.23;;;;;;;17.68;74.87;95410.44;5096901;28;20556;-73
2022/10/01 10:41:18;;;;;;;10.82;9.70;;;;;;;17.63;74.74;95406.03;5097704;28;20196;-73
2022/10/01 10:43:48;;;;;;;9.15;7.95;;;;;;;17.64;74.48;95373.34;5096822;28;20222;-73
2022/10/01 10:46:25;;;;;;;10.18;9.18;;;;;;;17.60;74.27;95373.34;5096688;28;20224;-73
2022/10/01 10:48:59;;;;;;;8.93;8.02;;;;;;;17.59;74.73;95355.00;5096076;28;20196;-73
2022/10/01 10:51:27;;;;;;;9.77;8.18;;;;;;;17.60;74.42;95367.75;5096978;28;20192;-73
2022/10/01 10:53:54;;;;;;;9.48;8.50;;;;;;;17.61;74.54;95362.97;5096428;28;20207;-74
2022/10/01 10:56:22;;;;;;;9.57;8.65;;;;;;;17.62;74.59;95350.66;5097473;28;20177;-74
2022/10/01 10:58:49;;;;;;;11.05;9.13;;;;;;;17.61;75.41;95354.59;5096266;28;20253;-74
2022/10/01 11:01:19;;;;;;;11.45;9.82;;;;;;;17.61;75.72;95352.66;5097315;28;20624;-74
2022/10/01 11:03:47;;;;;;;8.80;8.00;;;;;;;17.63;75.88;95327.13;5095676;28;20533;-73
2022/10/01 11:06:18;;;;;;;9.98;9.00;;;;;;;17.63;76.05;95355.81;5096726;28;20641;-73
2022/10/01 11:08:55;;;;;;;10.38;9.07;;;;;;;17.64;75.63;95343.47;5096000;28;20226;-73
2022/10/01 11:11:35;;;;;;;9.43;7.80;;;;;;;17.67;75.55;95325.97;5096117;28;20212;-73
2022/10/01 11:14:11;;;;;;;8.95;8.05;;;;;;;17.71;75.91;95317.59;5096989;28;20245;-73
2022/10/01 11:16:51;;;;;;;8.52;7.47;;;;;;;17.75;75.71;95302.50;5096830;28;20203;-73
2022/10/01 11:19:41;;;;;;;9.90;8.90;;;;;;;17.79;75.71;95294.97;5096789;28;20173;-73
2022/10/01 11:22:34;;;;;;;10.75;8.77;;;;;;;17.79;75.99;95288.56;5096893;28;20196;-73
2022/10/01 11:25:14;;;;;;;8.77;7.57;;;;;;;17.79;75.88;95271.81;5091641;28;20208;-73
2022/10/01 11:27:47;;;;;;;9.20;8.40;;;;;;;17.79;76.48;95297.75;5096334;28;20236;-73
2022/10/01 11:30:20;;;;;;;11.82;10.15;;;;;;;17.77;77.41;95319.66;5096113;28;20192;-73
2022/10/01 11:32:53;;;;;;;11.48;10.38;;;;;;;17.77;76.85;95313.28;5096251;28;20184;-73
2022/10/01 11:35:33;;;;;;;10.50;8.40;;;;;;;17.76;76.69;95283.78;5096134;28;20251;-73
2022/10/01 11:38:34;;;;;;;9.13;7.63;;;;;;;17.79;76.79;95280.19;5096325;28;20249;-73
2022/10/01 11:41:12;;;;;;;11.13;9.52;;;;;;;17.77;78.13;95279.81;5088423;28;20233;-74